Kake Airport Kake US
ICAO: PAFE
IATA:
Category: Medium
Scheduled Services:

Elevation: 172 ft
TransAlt. 18000 ft.

Airport Communications:
AWOS 3:135.25
ANCHORAGE CNTR:118
CTAF:122.9
SITKA RDO:121.3

PAFE Zoom In..

Runways:

(A) RW 11 length 4000 ft width 100 ft
---- / hdg 109

(B) RW 29 length 4000 ft width 100 ft
---- / hdg 289

Location; PAFE
Day. 30 / Time. 21.56 Zulu
* Altimeter: 29.86
* Temperature: 12° c. 53.6°f.
* Wind from: 290° Speed 09 kn.
Dewpoint: 07° c.
Visibility: 10 Statute Miles.
Clouds: Broken 6000 ft.
Clouds: Overcast 7000 ft.

PAFE 302156Z AUTO 29009KT 10SM BKN060 OVC070 12/07 A2986 RMK AO2 SLP124 T01170067 $


Wind From 290°
Speed 09 kn.

 
 
jpsmedia worldairports.se 2020   terms of use